sensor_id;sensor_type;location;lat;lon;timestamp;P1;durP1;ratioP1;P2;durP2;ratioP2
24663;SDS011;12791;50.992;13.788;2023-05-01T00:01:24;11.50;;;9.95;;
24663;SDS011;12791;50.992;13.788;2023-05-01T00:03:51;13.55;;;10.73;;
24663;SDS011;12791;50.992;13.788;2023-05-01T00:06:18;13.98;;;10.60;;
24663;SDS011;12791;50.992;13.788;2023-05-01T00:08:44;14.07;;;10.40;;
24663;SDS011;12791;50.992;13.788;2023-05-01T00:11:12;14.00;;;10.95;;
24663;SDS011;12791;50.992;13.788;2023-05-01T00:13:39;12.35;;;10.00;;
24663;SDS011;12791;50.992;13.788;2023-05-01T00:16:06;12.57;;;10.35;;
24663;SDS011;12791;50.992;13.788;2023-05-01T00:18:34;12.95;;;9.50;;
24663;SDS011;12791;50.992;13.788;2023-05-01T00:21:00;14.25;;;10.50;;
24663;SDS011;12791;50.992;13.788;2023-05-01T00:23:27;12.75;;;10.00;;
24663;SDS011;12791;50.992;13.788;2023-05-01T00:25:54;14.23;;;10.88;;
24663;SDS011;12791;50.992;13.788;2023-05-01T00:28:22;14.25;;;10.73;;
24663;SDS011;12791;50.992;13.788;2023-05-01T00:30:49;12.80;;;10.75;;
24663;SDS011;12791;50.992;13.788;2023-05-01T00:33:16;13.52;;;10.55;;
24663;SDS011;12791;50.992;13.788;2023-05-01T00:35:43;12.30;;;9.73;;
24663;SDS011;12791;50.992;13.788;2023-05-01T00:38:09;12.60;;;9.50;;
24663;SDS011;12791;50.992;13.788;2023-05-01T00:40:40;13.60;;;9.88;;
24663;SDS011;12791;50.992;13.788;2023-05-01T00:43:07;11.57;;;9.68;;
24663;SDS011;12791;50.992;13.788;2023-05-01T00:45:36;10.57;;;9.48;;
24663;SDS011;12791;50.992;13.788;2023-05-01T00:48:03;12.73;;;9.45;;
24663;SDS011;12791;50.992;13.788;2023-05-01T00:50:30;12.35;;;9.38;;
24663;SDS011;12791;50.992;13.788;2023-05-01T00:52:57;11.32;;;9.00;;
24663;SDS011;12791;50.992;13.788;2023-05-01T00:55:24;12.98;;;10.00;;
24663;SDS011;12791;50.992;13.788;2023-05-01T00:57:52;14.13;;;10.50;;
24663;SDS011;12791;50.992;13.788;2023-05-01T01:00:20;13.30;;;10.13;;
24663;SDS011;12791;50.992;13.788;2023-05-01T01:02:49;13.75;;;11.05;;
24663;SDS011;12791;50.992;13.788;2023-05-01T01:05:16;12.68;;;10.48;;
24663;SDS011;12791;50.992;13.788;2023-05-01T01:07:46;11.98;;;10.02;;
24663;SDS011;12791;50.992;13.788;2023-05-01T01:10:21;15.05;;;10.23;;
24663;SDS011;12791;50.992;13.788;2023-05-01T01:12:53;13.00;;;10.13;;
24663;SDS011;12791;50.992;13.788;2023-05-01T01:15:29;12.25;;;10.38;;
24663;SDS011;12791;50.992;13.788;2023-05-01T01:18:03;13.10;;;10.23;;
24663;SDS011;12791;50.992;13.788;2023-05-01T01:20:36;11.32;;;9.68;;
24663;SDS011;12791;50.992;13.788;2023-05-01T01:23:12;11.65;;;9.48;;
24663;SDS011;12791;50.992;13.788;2023-05-01T01:26:13;11.68;;;9.88;;
24663;SDS011;12791;50.992;13.788;2023-05-01T01:29:16;12.50;;;10.15;;
24663;SDS011;12791;50.992;13.788;2023-05-01T01:32:00;12.50;;;9.43;;
24663;SDS011;12791;50.992;13.788;2023-05-01T01:34:37;11.02;;;9.93;;
24663;SDS011;12791;50.992;13.788;2023-05-01T01:37:10;12.48;;;9.40;;
24663;SDS011;12791;50.992;13.788;2023-05-01T01:39:42;11.43;;;9.43;;
24663;SDS011;12791;50.992;13.788;2023-05-01T01:42:15;13.02;;;9.63;;
24663;SDS011;12791;50.992;13.788;2023-05-01T01:44:47;11.40;;;8.85;;
24663;SDS011;12791;50.992;13.788;2023-05-01T01:47:17;13.23;;;10.65;;
24663;SDS011;12791;50.992;13.788;2023-05-01T01:49:47;13.65;;;10.98;;
24663;SDS011;12791;50.992;13.788;2023-05-01T01:52:17;13.82;;;10.57;;
24663;SDS011;12791;50.992;13.788;2023-05-01T01:54:47;12.52;;;10.75;;
24663;SDS011;12791;50.992;13.788;2023-05-01T01:57:16;13.23;;;9.98;;
24663;SDS011;12791;50.992;13.788;2023-05-01T01:59:45;11.68;;;10.48;;
24663;SDS011;12791;50.992;13.788;2023-05-01T02:02:14;14.90;;;10.48;;
24663;SDS011;12791;50.992;13.788;2023-05-01T02:04:42;12.98;;;10.50;;
24663;SDS011;12791;50.992;13.788;2023-05-01T02:07:12;15.38;;;11.55;;
24663;SDS011;12791;50.992;13.788;2023-05-01T02:09:40;12.98;;;10.80;;
24663;SDS011;12791;50.992;13.788;2023-05-01T02:12:07;13.27;;;10.95;;
24663;SDS011;12791;50.992;13.788;2023-05-01T02:14:36;14.32;;;10.20;;
24663;SDS011;12791;50.992;13.788;2023-05-01T02:17:03;13.60;;;10.88;;
24663;SDS011;12791;50.992;13.788;2023-05-01T02:19:30;13.90;;;10.45;;
24663;SDS011;12791;50.992;13.788;2023-05-01T02:21:58;14.30;;;11.35;;
24663;SDS011;12791;50.992;13.788;2023-05-01T02:24:27;14.60;;;10.95;;
24663;SDS011;12791;50.992;13.788;2023-05-01T02:26:59;14.68;;;10.80;;
24663;SDS011;12791;50.992;13.788;2023-05-01T02:31:58;14.75;;;10.57;;
24663;SDS011;12791;50.992;13.788;2023-05-01T02:34:25;14.85;;;10.95;;
24663;SDS011;12791;50.992;13.788;2023-05-01T02:36:51;17.33;;;11.98;;
24663;SDS011;12791;50.992;13.788;2023-05-01T02:39:18;15.57;;;10.75;;
24663;SDS011;12791;50.992;13.788;2023-05-01T02:41:46;12.93;;;11.20;;
24663;SDS011;12791;50.992;13.788;2023-05-01T02:44:14;16.05;;;11.73;;
24663;SDS011;12791;50.992;13.788;2023-05-01T02:46:42;14.05;;;10.40;;
24663;SDS011;12791;50.992;13.788;2023-05-01T02:49:12;17.98;;;11.73;;
24663;SDS011;12791;50.992;13.788;2023-05-01T02:51:40;12.48;;;10.02;;
24663;SDS011;12791;50.992;13.788;2023-05-01T02:54:08;15.20;;;12.13;;
24663;SDS011;12791;50.992;13.788;2023-05-01T02:56:35;13.93;;;11.15;;
24663;SDS011;12791;50.992;13.788;2023-05-01T02:59:04;14.75;;;12.32;;
24663;SDS011;12791;50.992;13.788;2023-05-01T03:01:30;15.90;;;11.00;;
24663;SDS011;12791;50.992;13.788;2023-05-01T03:03:57;16.92;;;12.10;;
24663;SDS011;12791;50.992;13.788;2023-05-01T03:06:24;13.20;;;11.43;;
24663;SDS011;12791;50.992;13.788;2023-05-01T03:08:52;13.60;;;11.82;;
24663;SDS011;12791;50.992;13.788;2023-05-01T03:11:19;16.25;;;13.02;;
24663;SDS011;12791;50.992;13.788;2023-05-01T03:13:46;14.70;;;11.88;;
24663;SDS011;12791;50.992;13.788;2023-05-01T03:16:14;15.82;;;11.75;;
24663;SDS011;12791;50.992;13.788;2023-05-01T03:18:41;15.65;;;12.25;;
24663;SDS011;12791;50.992;13.788;2023-05-01T03:21:07;17.30;;;13.00;;
24663;SDS011;12791;50.992;13.788;2023-05-01T03:23:36;15.55;;;12.43;;
24663;SDS011;12791;50.992;13.788;2023-05-01T03:26:03;13.93;;;12.00;;
24663;SDS011;12791;50.992;13.788;2023-05-01T03:28:31;15.23;;;12.52;;
24663;SDS011;12791;50.992;13.788;2023-05-01T03:30:58;14.57;;;11.93;;
24663;SDS011;12791;50.992;13.788;2023-05-01T03:33:26;17.55;;;13.27;;
24663;SDS011;12791;50.992;13.788;2023-05-01T03:35:59;14.48;;;11.55;;
24663;SDS011;12791;50.992;13.788;2023-05-01T03:38:27;13.05;;;10.98;;
24663;SDS011;12791;50.992;13.788;2023-05-01T03:40:53;13.48;;;11.18;;
24663;SDS011;12791;50.992;13.788;2023-05-01T03:43:20;13.98;;;11.30;;
24663;SDS011;12791;50.992;13.788;2023-05-01T03:45:47;13.38;;;10.82;;
24663;SDS011;12791;50.992;13.788;2023-05-01T03:48:14;12.48;;;10.55;;
24663;SDS011;12791;50.992;13.788;2023-05-01T03:50:42;10.80;;;9.70;;
24663;SDS011;12791;50.992;13.788;2023-05-01T03:53:09;13.38;;;10.40;;
24663;SDS011;12791;50.992;13.788;2023-05-01T03:55:37;14.00;;;11.35;;
24663;SDS011;12791;50.992;13.788;2023-05-01T03:58:04;11.75;;;9.70;;
24663;SDS011;12791;50.992;13.788;2023-05-01T04:00:31;12.13;;;10.40;;
24663;SDS011;12791;50.992;13.788;2023-05-01T04:02:57;12.15;;;10.05;;
24663;SDS011;12791;50.992;13.788;2023-05-01T04:05:24;15.55;;;11.45;;
24663;SDS011;12791;50.992;13.788;2023-05-01T04:07:52;16.65;;;11.80;;
24663;SDS011;12791;50.992;13.788;2023-05-01T04:10:18;15.52;;;11.00;;
24663;SDS011;12791;50.992;13.788;2023-05-01T04:12:45;12.50;;;11.07;;
24663;SDS011;12791;50.992;13.788;2023-05-01T04:15:11;14.35;;;10.55;;
24663;SDS011;12791;50.992;13.788;2023-05-01T04:17:38;14.27;;;10.35;;
24663;SDS011;12791;50.992;13.788;2023-05-01T04:20:08;14.00;;;11.75;;
24663;SDS011;12791;50.992;13.788;2023-05-01T04:22:35;13.80;;;11.50;;
24663;SDS011;12791;50.992;13.788;2023-05-01T04:25:03;15.05;;;11.38;;
24663;SDS011;12791;50.992;13.788;2023-05-01T04:27:31;13.95;;;10.98;;
24663;SDS011;12791;50.992;13.788;2023-05-01T04:29:57;19.38;;;11.48;;
24663;SDS011;12791;50.992;13.788;2023-05-01T04:32:24;12.68;;;10.90;;
24663;SDS011;12791;50.992;13.788;2023-05-01T04:34:50;14.23;;;11.02;;
24663;SDS011;12791;50.992;13.788;2023-05-01T04:37:17;18.55;;;12.77;;
24663;SDS011;12791;50.992;13.788;2023-05-01T04:39:44;16.92;;;11.98;;
24663;SDS011;12791;50.992;13.788;2023-05-01T04:42:12;17.08;;;14.52;;
24663;SDS011;12791;50.992;13.788;2023-05-01T04:44:38;17.92;;;14.23;;
24663;SDS011;12791;50.992;13.788;2023-05-01T04:47:05;21.17;;;15.60;;
24663;SDS011;12791;50.992;13.788;2023-05-01T04:49:32;19.95;;;14.20;;
24663;SDS011;12791;50.992;13.788;2023-05-01T04:51:58;19.25;;;14.95;;
24663;SDS011;12791;50.992;13.788;2023-05-01T04:54:25;20.92;;;14.43;;
24663;SDS011;12791;50.992;13.788;2023-05-01T04:56:52;19.58;;;15.25;;
24663;SDS011;12791;50.992;13.788;2023-05-01T04:59:19;21.65;;;15.27;;
24663;SDS011;12791;50.992;13.788;2023-05-01T05:01:46;23.73;;;16.73;;
24663;SDS011;12791;50.992;13.788;2023-05-01T05:04:13;18.65;;;15.45;;
24663;SDS011;12791;50.992;13.788;2023-05-01T05:06:40;23.60;;;16.05;;
24663;SDS011;12791;50.992;13.788;2023-05-01T05:09:06;25.30;;;17.10;;
24663;SDS011;12791;50.992;13.788;2023-05-01T05:11:33;21.83;;;15.55;;
24663;SDS011;12791;50.992;13.788;2023-05-01T05:13:59;21.15;;;16.73;;
24663;SDS011;12791;50.992;13.788;2023-05-01T05:16:27;23.10;;;16.73;;
24663;SDS011;12791;50.992;13.788;2023-05-01T05:18:54;23.58;;;16.65;;
24663;SDS011;12791;50.992;13.788;2023-05-01T05:21:21;22.63;;;17.63;;
24663;SDS011;12791;50.992;13.788;2023-05-01T05:23:48;22.02;;;17.25;;
24663;SDS011;12791;50.992;13.788;2023-05-01T05:26:14;24.00;;;17.52;;
24663;SDS011;12791;50.992;13.788;2023-05-01T05:28:41;22.73;;;16.63;;
24663;SDS011;12791;50.992;13.788;2023-05-01T05:31:09;22.63;;;16.92;;
24663;SDS011;12791;50.992;13.788;2023-05-01T05:33:37;26.60;;;18.30;;
24663;SDS011;12791;50.992;13.788;2023-05-01T05:36:03;23.63;;;17.83;;
24663;SDS011;12791;50.992;13.788;2023-05-01T05:38:30;26.55;;;18.13;;
24663;SDS011;12791;50.992;13.788;2023-05-01T05:40:57;25.17;;;17.65;;
24663;SDS011;12791;50.992;13.788;2023-05-01T05:43:24;25.52;;;18.95;;
24663;SDS011;12791;50.992;13.788;2023-05-01T05:45:55;32.15;;;19.90;;
24663;SDS011;12791;50.992;13.788;2023-05-01T05:48:21;26.00;;;18.15;;
24663;SDS011;12791;50.992;13.788;2023-05-01T05:50:49;26.70;;;18.90;;
24663;SDS011;12791;50.992;13.788;2023-05-01T05:53:16;23.92;;;18.42;;
24663;SDS011;12791;50.992;13.788;2023-05-01T05:55:43;22.60;;;18.52;;
24663;SDS011;12791;50.992;13.788;2023-05-01T05:58:11;24.02;;;18.33;;
24663;SDS011;12791;50.992;13.788;2023-05-01T06:00:38;25.50;;;18.13;;
24663;SDS011;12791;50.992;13.788;2023-05-01T06:03:05;25.40;;;18.25;;
24663;SDS011;12791;50.992;13.788;2023-05-01T06:05:32;25.60;;;20.90;;
24663;SDS011;12791;50.992;13.788;2023-05-01T06:08:00;27.45;;;21.05;;
24663;SDS011;12791;50.992;13.788;2023-05-01T06:10:26;27.98;;;20.27;;
24663;SDS011;12791;50.992;13.788;2023-05-01T06:12:53;29.30;;;21.17;;
24663;SDS011;12791;50.992;13.788;2023-05-01T06:15:19;25.27;;;19.23;;
24663;SDS011;12791;50.992;13.788;2023-05-01T06:17:48;25.67;;;20.92;;
24663;SDS011;12791;50.992;13.788;2023-05-01T06:20:15;29.63;;;22.02;;
24663;SDS011;12791;50.992;13.788;2023-05-01T06:22:42;30.17;;;22.15;;
24663;SDS011;12791;50.992;13.788;2023-05-01T06:25:10;29.48;;;21.92;;
24663;SDS011;12791;50.992;13.788;2023-05-01T06:27:37;28.33;;;22.02;;
24663;SDS011;12791;50.992;13.788;2023-05-01T06:30:04;28.90;;;21.08;;
24663;SDS011;12791;50.992;13.788;2023-05-01T06:32:31;25.65;;;20.85;;
24663;SDS011;12791;50.992;13.788;2023-05-01T06:34:57;26.23;;;20.98;;
24663;SDS011;12791;50.992;13.788;2023-05-01T06:37:24;27.75;;;20.88;;
24663;SDS011;12791;50.992;13.788;2023-05-01T06:39:51;24.02;;;20.00;;
24663;SDS011;12791;50.992;13.788;2023-05-01T06:42:19;29.85;;;20.92;;
24663;SDS011;12791;50.992;13.788;2023-05-01T06:44:45;28.25;;;21.27;;
24663;SDS011;12791;50.992;13.788;2023-05-01T06:47:12;28.42;;;21.55;;
24663;SDS011;12791;50.992;13.788;2023-05-01T06:49:38;24.67;;;20.33;;
24663;SDS011;12791;50.992;13.788;2023-05-01T06:52:05;26.17;;;21.00;;
24663;SDS011;12791;50.992;13.788;2023-05-01T06:54:31;24.85;;;19.67;;
24663;SDS011;12791;50.992;13.788;2023-05-01T06:56:58;29.30;;;21.10;;
24663;SDS011;12791;50.992;13.788;2023-05-01T06:59:26;30.20;;;20.40;;
24663;SDS011;12791;50.992;13.788;2023-05-01T07:01:53;28.38;;;19.98;;
24663;SDS011;12791;50.992;13.788;2023-05-01T07:04:19;26.88;;;19.45;;
24663;SDS011;12791;50.992;13.788;2023-05-01T07:06:46;25.52;;;19.42;;
24663;SDS011;12791;50.992;13.788;2023-05-01T07:09:13;26.92;;;19.10;;
24663;SDS011;12791;50.992;13.788;2023-05-01T07:11:40;29.58;;;18.30;;
24663;SDS011;12791;50.992;13.788;2023-05-01T07:14:07;23.38;;;17.08;;
24663;SDS011;12791;50.992;13.788;2023-05-01T07:16:35;24.75;;;16.60;;
24663;SDS011;12791;50.992;13.788;2023-05-01T07:19:01;18.63;;;15.05;;
24663;SDS011;12791;50.992;13.788;2023-05-01T07:21:28;21.67;;;15.43;;
24663;SDS011;12791;50.992;13.788;2023-05-01T07:23:55;22.52;;;15.40;;
24663;SDS011;12791;50.992;13.788;2023-05-01T07:26:23;21.80;;;14.43;;
24663;SDS011;12791;50.992;13.788;2023-05-01T07:28:51;20.83;;;14.70;;
24663;SDS011;12791;50.992;13.788;2023-05-01T07:31:17;20.88;;;14.90;;
24663;SDS011;12791;50.992;13.788;2023-05-01T07:33:45;14.80;;;11.75;;
24663;SDS011;12791;50.992;13.788;2023-05-01T07:36:13;12.75;;;9.35;;
24663;SDS011;12791;50.992;13.788;2023-05-01T07:38:40;11.02;;;7.30;;
24663;SDS011;12791;50.992;13.788;2023-05-01T07:41:07;14.35;;;7.07;;
24663;SDS011;12791;50.992;13.788;2023-05-01T07:43:33;8.18;;;7.00;;
24663;SDS011;12791;50.992;13.788;2023-05-01T07:46:00;9.60;;;6.70;;
24663;SDS011;12791;50.992;13.788;2023-05-01T07:48:27;10.65;;;6.95;;
24663;SDS011;12791;50.992;13.788;2023-05-01T07:50:55;9.70;;;7.28;;
24663;SDS011;12791;50.992;13.788;2023-05-01T07:53:22;9.75;;;6.47;;
24663;SDS011;12791;50.992;13.788;2023-05-01T07:55:48;10.23;;;6.25;;
24663;SDS011;12791;50.992;13.788;2023-05-01T07:58:15;8.00;;;6.25;;
24663;SDS011;12791;50.992;13.788;2023-05-01T08:00:42;8.27;;;6.50;;
24663;SDS011;12791;50.992;13.788;2023-05-01T08:03:10;13.00;;;6.88;;
24663;SDS011;12791;50.992;13.788;2023-05-01T08:05:38;9.90;;;7.10;;
24663;SDS011;12791;50.992;13.788;2023-05-01T08:08:06;7.72;;;6.75;;
24663;SDS011;12791;50.992;13.788;2023-05-01T08:10:33;7.10;;;5.60;;
24663;SDS011;12791;50.992;13.788;2023-05-01T08:12:59;8.48;;;5.53;;
24663;SDS011;12791;50.992;13.788;2023-05-01T08:15:26;9.32;;;5.50;;
24663;SDS011;12791;50.992;13.788;2023-05-01T08:17:53;7.80;;;5.43;;
24663;SDS011;12791;50.992;13.788;2023-05-01T08:20:19;7.93;;;5.47;;
24663;SDS011;12791;50.992;13.788;2023-05-01T08:22:46;8.30;;;5.35;;
24663;SDS011;12791;50.992;13.788;2023-05-01T08:25:14;7.55;;;5.65;;
24663;SDS011;12791;50.992;13.788;2023-05-01T08:27:40;6.40;;;5.07;;
24663;SDS011;12791;50.992;13.788;2023-05-01T08:30:07;8.20;;;5.38;;
24663;SDS011;12791;50.992;13.788;2023-05-01T08:32:34;6.68;;;5.25;;
24663;SDS011;12791;50.992;13.788;2023-05-01T08:35:01;7.38;;;4.50;;
24663;SDS011;12791;50.992;13.788;2023-05-01T08:37:27;7.32;;;5.70;;
24663;SDS011;12791;50.992;13.788;2023-05-01T08:39:55;7.38;;;5.43;;
24663;SDS011;12791;50.992;13.788;2023-05-01T08:42:23;7.40;;;5.65;;
24663;SDS011;12791;50.992;13.788;2023-05-01T08:44:50;6.93;;;5.85;;
24663;SDS011;12791;50.992;13.788;2023-05-01T08:47:23;9.98;;;5.72;;
24663;SDS011;12791;50.992;13.788;2023-05-01T08:49:50;6.82;;;5.15;;
24663;SDS011;12791;50.992;13.788;2023-05-01T08:52:17;6.78;;;5.72;;
24663;SDS011;12791;50.992;13.788;2023-05-01T08:54:47;6.22;;;5.35;;
24663;SDS011;12791;50.992;13.788;2023-05-01T08:57:18;9.63;;;5.70;;
24663;SDS011;12791;50.992;13.788;2023-05-01T08:59:47;10.60;;;6.03;;
24663;SDS011;12791;50.992;13.788;2023-05-01T09:02:17;8.98;;;5.88;;
24663;SDS011;12791;50.992;13.788;2023-05-01T09:04:44;7.90;;;6.22;;
24663;SDS011;12791;50.992;13.788;2023-05-01T09:07:13;7.93;;;6.38;;
24663;SDS011;12791;50.992;13.788;2023-05-01T09:09:40;10.75;;;6.25;;
24663;SDS011;12791;50.992;13.788;2023-05-01T09:12:09;10.23;;;6.53;;
24663;SDS011;12791;50.992;13.788;2023-05-01T09:14:43;7.57;;;6.03;;
24663;SDS011;12791;50.992;13.788;2023-05-01T09:17:11;8.13;;;6.18;;
24663;SDS011;12791;50.992;13.788;2023-05-01T09:19:38;8.13;;;6.13;;
24663;SDS011;12791;50.992;13.788;2023-05-01T09:22:05;7.22;;;5.97;;
24663;SDS011;12791;50.992;13.788;2023-05-01T09:24:32;7.75;;;6.50;;
24663;SDS011;12791;50.992;13.788;2023-05-01T09:26:59;7.63;;;6.40;;
24663;SDS011;12791;50.992;13.788;2023-05-01T09:29:38;9.43;;;6.38;;
24663;SDS011;12791;50.992;13.788;2023-05-01T09:32:13;7.10;;;6.28;;
24663;SDS011;12791;50.992;13.788;2023-05-01T09:34:40;10.88;;;6.32;;
24663;SDS011;12791;50.992;13.788;2023-05-01T09:37:09;7.88;;;6.82;;
24663;SDS011;12791;50.992;13.788;2023-05-01T09:39:37;7.22;;;6.30;;
24663;SDS011;12791;50.992;13.788;2023-05-01T09:42:04;7.25;;;6.22;;
24663;SDS011;12791;50.992;13.788;2023-05-01T09:44:33;8.63;;;6.20;;
24663;SDS011;12791;50.992;13.788;2023-05-01T09:47:06;9.43;;;6.47;;
24663;SDS011;12791;50.992;13.788;2023-05-01T09:49:44;5.88;;;5.28;;
24663;SDS011;12791;50.992;13.788;2023-05-01T09:52:12;8.98;;;5.35;;
24663;SDS011;12791;50.992;13.788;2023-05-01T09:54:39;8.35;;;5.63;;
24663;SDS011;12791;50.992;13.788;2023-05-01T09:57:06;8.52;;;6.60;;
24663;SDS011;12791;50.992;13.788;2023-05-01T09:59:34;8.40;;;5.70;;
24663;SDS011;12791;50.992;13.788;2023-05-01T10:02:00;10.88;;;5.65;;
24663;SDS011;12791;50.992;13.788;2023-05-01T10:04:30;7.60;;;5.20;;
24663;SDS011;12791;50.992;13.788;2023-05-01T10:07:00;6.05;;;4.43;;
24663;SDS011;12791;50.992;13.788;2023-05-01T10:09:37;6.05;;;5.07;;
24663;SDS011;12791;50.992;13.788;2023-05-01T10:12:04;7.75;;;5.47;;
24663;SDS011;12791;50.992;13.788;2023-05-01T10:14:30;9.85;;;5.20;;
24663;SDS011;12791;50.992;13.788;2023-05-01T10:17:05;6.47;;;4.50;;
24663;SDS011;12791;50.992;13.788;2023-05-01T10:19:42;8.38;;;4.95;;
24663;SDS011;12791;50.992;13.788;2023-05-01T10:22:10;6.80;;;4.75;;
24663;SDS011;12791;50.992;13.788;2023-05-01T10:24:37;8.32;;;4.30;;
24663;SDS011;12791;50.992;13.788;2023-05-01T10:27:04;4.72;;;4.20;;
24663;SDS011;12791;50.992;13.788;2023-05-01T10:29:33;4.57;;;4.00;;
24663;SDS011;12791;50.992;13.788;2023-05-01T10:32:01;5.57;;;4.00;;
24663;SDS011;12791;50.992;13.788;2023-05-01T10:34:29;5.32;;;3.88;;
24663;SDS011;12791;50.992;13.788;2023-05-01T10:36:59;5.95;;;4.15;;
24663;SDS011;12791;50.992;13.788;2023-05-01T10:39:30;4.40;;;3.72;;
24663;SDS011;12791;50.992;13.788;2023-05-01T10:42:01;5.15;;;4.60;;
24663;SDS011;12791;50.992;13.788;2023-05-01T10:44:34;4.90;;;3.67;;
24663;SDS011;12791;50.992;13.788;2023-05-01T10:50:07;4.63;;;3.90;;
24663;SDS011;12791;50.992;13.788;2023-05-01T10:55:41;4.75;;;3.60;;
24663;SDS011;12791;50.992;13.788;2023-05-01T10:58:08;6.07;;;4.10;;
24663;SDS011;12791;50.992;13.788;2023-05-01T11:00:35;7.22;;;4.15;;
24663;SDS011;12791;50.992;13.788;2023-05-01T11:06:06;7.13;;;4.82;;
24663;SDS011;12791;50.992;13.788;2023-05-01T11:08:33;4.93;;;3.95;;
24663;SDS011;12791;50.992;13.788;2023-05-01T11:14:07;4.80;;;3.20;;
24663;SDS011;12791;50.992;13.788;2023-05-01T11:16:41;5.10;;;3.78;;
24663;SDS011;12791;50.992;13.788;2023-05-01T11:19:10;6.13;;;3.53;;
24663;SDS011;12791;50.992;13.788;2023-05-01T11:21:58;4.18;;;3.78;;
24663;SDS011;12791;50.992;13.788;2023-05-01T11:24:30;7.63;;;3.75;;
24663;SDS011;12791;50.992;13.788;2023-05-01T11:26:56;6.00;;;4.00;;
24663;SDS011;12791;50.992;13.788;2023-05-01T11:29:25;4.95;;;3.45;;
24663;SDS011;12791;50.992;13.788;2023-05-01T11:31:56;8.85;;;3.88;;
24663;SDS011;12791;50.992;13.788;2023-05-01T11:34:22;5.15;;;3.22;;
24663;SDS011;12791;50.992;13.788;2023-05-01T11:36:50;6.93;;;3.55;;
24663;SDS011;12791;50.992;13.788;2023-05-01T11:39:18;5.93;;;3.20;;
24663;SDS011;12791;50.992;13.788;2023-05-01T11:41:46;3.15;;;2.85;;
24663;SDS011;12791;50.992;13.788;2023-05-01T11:44:13;4.07;;;3.08;;
24663;SDS011;12791;50.992;13.788;2023-05-01T11:46:43;3.78;;;3.35;;
24663;SDS011;12791;50.992;13.788;2023-05-01T11:49:10;4.22;;;3.22;;
24663;SDS011;12791;50.992;13.788;2023-05-01T11:51:36;4.10;;;2.80;;
24663;SDS011;12791;50.992;13.788;2023-05-01T11:54:03;6.85;;;2.92;;
24663;SDS011;12791;50.992;13.788;2023-05-01T11:56:32;3.05;;;2.20;;
24663;SDS011;12791;50.992;13.788;2023-05-01T11:59:08;3.78;;;2.63;;
24663;SDS011;12791;50.992;13.788;2023-05-01T12:01:36;4.50;;;2.97;;
24663;SDS011;12791;50.992;13.788;2023-05-01T12:04:05;5.25;;;2.95;;
24663;SDS011;12791;50.992;13.788;2023-05-01T12:06:36;3.33;;;2.90;;
24663;SDS011;12791;50.992;13.788;2023-05-01T12:09:07;5.10;;;2.53;;
24663;SDS011;12791;50.992;13.788;2023-05-01T12:11:35;3.45;;;2.50;;
24663;SDS011;12791;50.992;13.788;2023-05-01T12:14:04;5.13;;;2.20;;
24663;SDS011;12791;50.992;13.788;2023-05-01T12:16:30;2.80;;;2.60;;
24663;SDS011;12791;50.992;13.788;2023-05-01T12:18:57;3.00;;;2.30;;
24663;SDS011;12791;50.992;13.788;2023-05-01T12:21:26;5.47;;;2.67;;
24663;SDS011;12791;50.992;13.788;2023-05-01T12:23:52;4.78;;;2.25;;
24663;SDS011;12791;50.992;13.788;2023-05-01T12:26:20;6.10;;;1.98;;
24663;SDS011;12791;50.992;13.788;2023-05-01T12:28:52;3.80;;;2.40;;
24663;SDS011;12791;50.992;13.788;2023-05-01T12:31:19;3.50;;;1.98;;
24663;SDS011;12791;50.992;13.788;2023-05-01T12:33:51;3.15;;;1.80;;
24663;SDS011;12791;50.992;13.788;2023-05-01T12:36:18;3.23;;;1.60;;
24663;SDS011;12791;50.992;13.788;2023-05-01T12:38:54;4.43;;;1.80;;
24663;SDS011;12791;50.992;13.788;2023-05-01T12:41:30;2.75;;;2.33;;
24663;SDS011;12791;50.992;13.788;2023-05-01T12:43:58;5.68;;;1.63;;
24663;SDS011;12791;50.992;13.788;2023-05-01T12:46:25;1.90;;;1.63;;
24663;SDS011;12791;50.992;13.788;2023-05-01T12:48:52;4.60;;;1.48;;
24663;SDS011;12791;50.992;13.788;2023-05-01T12:51:20;2.08;;;1.60;;
24663;SDS011;12791;50.992;13.788;2023-05-01T12:53:46;4.53;;;1.70;;
24663;SDS011;12791;50.992;13.788;2023-05-01T12:56:21;3.15;;;1.77;;
24663;SDS011;12791;50.992;13.788;2023-05-01T12:58:49;1.85;;;1.60;;
24663;SDS011;12791;50.992;13.788;2023-05-01T13:01:22;3.67;;;1.63;;
24663;SDS011;12791;50.992;13.788;2023-05-01T13:03:50;3.28;;;1.70;;
24663;SDS011;12791;50.992;13.788;2023-05-01T13:06:17;3.47;;;1.70;;
24663;SDS011;12791;50.992;13.788;2023-05-01T13:08:43;3.47;;;1.50;;
24663;SDS011;12791;50.992;13.788;2023-05-01T13:11:11;5.43;;;1.70;;
24663;SDS011;12791;50.992;13.788;2023-05-01T13:13:40;5.55;;;1.45;;
24663;SDS011;12791;50.992;13.788;2023-05-01T13:16:09;3.05;;;1.50;;
24663;SDS011;12791;50.992;13.788;2023-05-01T13:18:45;3.47;;;1.52;;
24663;SDS011;12791;50.992;13.788;2023-05-01T13:21:13;2.35;;;1.60;;
24663;SDS011;12791;50.992;13.788;2023-05-01T13:23:41;3.25;;;1.38;;
24663;SDS011;12791;50.992;13.788;2023-05-01T13:26:16;1.50;;;1.40;;
24663;SDS011;12791;50.992;13.788;2023-05-01T13:28:44;2.90;;;1.40;;
24663;SDS011;12791;50.992;13.788;2023-05-01T13:31:12;2.15;;;1.77;;
24663;SDS011;12791;50.992;13.788;2023-05-01T13:33:39;3.00;;;1.65;;
24663;SDS011;12791;50.992;13.788;2023-05-01T13:36:08;2.97;;;1.35;;
24663;SDS011;12791;50.992;13.788;2023-05-01T13:38:39;3.17;;;1.50;;
24663;SDS011;12791;50.992;13.788;2023-05-01T13:41:12;1.85;;;1.10;;
24663;SDS011;12791;50.992;13.788;2023-05-01T13:43:39;6.95;;;1.70;;
24663;SDS011;12791;50.992;13.788;2023-05-01T13:46:08;4.28;;;1.70;;
24663;SDS011;12791;50.992;13.788;2023-05-01T13:48:35;2.10;;;1.40;;
24663;SDS011;12791;50.992;13.788;2023-05-01T13:51:04;2.45;;;1.60;;
24663;SDS011;12791;50.992;13.788;2023-05-01T13:53:30;2.63;;;1.58;;
24663;SDS011;12791;50.992;13.788;2023-05-01T13:55:57;3.72;;;1.52;;
24663;SDS011;12791;50.992;13.788;2023-05-01T13:58:23;1.85;;;1.30;;
24663;SDS011;12791;50.992;13.788;2023-05-01T14:00:50;3.47;;;1.20;;
24663;SDS011;12791;50.992;13.788;2023-05-01T14:03:18;2.42;;;1.38;;
24663;SDS011;12791;50.992;13.788;2023-05-01T14:05:46;3.25;;;1.50;;
24663;SDS011;12791;50.992;13.788;2023-05-01T14:08:13;1.45;;;1.25;;
24663;SDS011;12791;50.992;13.788;2023-05-01T14:10:40;4.65;;;1.70;;
24663;SDS011;12791;50.992;13.788;2023-05-01T14:13:06;1.92;;;1.48;;
24663;SDS011;12791;50.992;13.788;2023-05-01T14:15:33;2.70;;;1.25;;
24663;SDS011;12791;50.992;13.788;2023-05-01T14:18:03;1.88;;;1.52;;
24663;SDS011;12791;50.992;13.788;2023-05-01T14:20:32;1.35;;;1.17;;
24663;SDS011;12791;50.992;13.788;2023-05-01T14:22:58;1.67;;;1.00;;
24663;SDS011;12791;50.992;13.788;2023-05-01T14:25:26;2.40;;;1.23;;
24663;SDS011;12791;50.992;13.788;2023-05-01T14:27:54;1.85;;;1.08;;
24663;SDS011;12791;50.992;13.788;2023-05-01T14:30:25;1.80;;;1.10;;
24663;SDS011;12791;50.992;13.788;2023-05-01T14:32:54;4.15;;;1.08;;
24663;SDS011;12791;50.992;13.788;2023-05-01T14:35:22;2.75;;;1.48;;
24663;SDS011;12791;50.992;13.788;2023-05-01T14:37:51;1.35;;;1.25;;
24663;SDS011;12791;50.992;13.788;2023-05-01T14:40:20;2.42;;;1.63;;
24663;SDS011;12791;50.992;13.788;2023-05-01T14:42:52;2.53;;;1.43;;